createdAt,value
2022-08-26T00:02:02.219Z,100356.41
2022-08-26T00:04:32.121Z,100337.16
2022-08-26T00:06:59.453Z,100345.63
2022-08-26T00:09:26.820Z,100344.16
2022-08-26T00:11:54.554Z,100341.19
2022-08-26T00:14:27.076Z,100337.81
2022-08-26T00:16:57.265Z,100341.16
2022-08-26T00:19:25.188Z,100331.66
2022-08-26T00:21:53.577Z,100330.19
2022-08-26T00:24:21.852Z,100341.63
2022-08-26T00:26:50.130Z,100340.78
2022-08-26T00:29:19.773Z,100339.94
2022-08-26T00:31:49.403Z,100342.69
2022-08-26T00:34:19.418Z,100346.06
2022-08-26T00:36:49.222Z,100343.13
2022-08-26T00:39:16.652Z,100337.84
2022-08-26T00:41:44.036Z,100335.94
2022-08-26T00:44:12.200Z,100347.34
2022-08-26T00:46:46.413Z,100337.19
2022-08-26T00:49:27.071Z,100335.06
2022-08-26T00:51:59.067Z,100338.63
2022-08-26T00:54:28.140Z,100333.75
2022-08-26T00:56:59.928Z,100327.81
2022-08-26T00:59:32.663Z,100331.22
2022-08-26T01:02:02.760Z,100312.19
2022-08-26T01:04:32.031Z,100317.66
2022-08-26T01:07:00.217Z,100318.94
2022-08-26T01:09:29.934Z,100316.19
2022-08-26T01:11:59.879Z,100315.56
2022-08-26T01:14:31.870Z,100316.38
2022-08-26T01:17:02.075Z,100319.31
2022-08-26T01:19:38.399Z,100321.19
2022-08-26T01:22:58.901Z,100319.03
2022-08-26T01:25:31.543Z,100327.19
2022-08-26T01:28:00.797Z,100323.19
2022-08-26T01:30:29.614Z,100322.50
2022-08-26T01:32:59.954Z,100338.13
2022-08-26T01:35:28.061Z,100329.03
2022-08-26T01:37:57.475Z,100322.44
2022-08-26T01:40:28.426Z,100323.91
2022-08-26T01:42:56.170Z,100328.72
2022-08-26T01:45:26.944Z,100317.72
2022-08-26T01:47:56.984Z,100321.06
2022-08-26T01:50:30.245Z,100318.06
2022-08-26T01:53:00.556Z,100312.78
2022-08-26T01:55:32.870Z,100322.25
2022-08-26T01:58:04.819Z,100318.91
2022-08-26T02:00:34.378Z,100313.00
2022-08-26T02:03:18.354Z,100325.84
2022-08-26T02:05:51.246Z,100311.75
2022-08-26T02:08:24.780Z,100319.97
2022-08-26T02:10:54.975Z,100334.13
2022-08-26T02:13:23.654Z,100314.94
2022-08-26T02:15:53.367Z,100320.63
2022-08-26T02:18:21.125Z,100328.19
2022-08-26T02:20:53.304Z,100334.53
2022-08-26T02:23:21.250Z,100322.53
2022-08-26T02:26:12.140Z,100344.25
2022-08-26T02:29:02.621Z,100335.19
2022-08-26T02:31:30.082Z,100348.22
2022-08-26T02:34:18.999Z,100341.91
2022-08-26T02:36:47.285Z,100350.13
2022-08-26T02:39:19.501Z,100336.63
2022-08-26T02:41:49.917Z,100347.78
2022-08-26T02:44:17.617Z,100356.22
2022-08-26T02:46:46.933Z,100357.06
2022-08-26T02:49:16.978Z,100350.94
2022-08-26T02:51:44.795Z,100356.59
2022-08-26T02:54:12.960Z,100371.38
2022-08-26T02:56:41.103Z,100365.44
2022-08-26T02:59:09.186Z,100367.09
2022-08-26T03:01:37.151Z,100373.97
2022-08-26T03:04:07.054Z,100378.84
2022-08-26T03:06:36.205Z,100374.97
2022-08-26T03:09:05.350Z,100376.63
2022-08-26T03:11:33.454Z,100376.81
2022-08-26T03:14:03.381Z,100372.78
2022-08-26T03:16:33.700Z,100376.56
2022-08-26T03:19:02.958Z,100381.41
2022-08-26T03:21:31.107Z,100383.47
2022-08-26T03:23:59.328Z,100374.41
2022-08-26T03:26:28.895Z,100371.50
2022-08-26T03:29:16.131Z,100365.81
2022-08-26T03:31:44.145Z,100367.94
2022-08-26T03:34:15.314Z,100377.06
2022-08-26T03:36:43.711Z,100378.38
2022-08-26T03:39:12.680Z,100371.25
2022-08-26T03:41:41.216Z,100376.63
2022-08-26T03:44:11.407Z,100386.75
2022-08-26T03:46:39.413Z,100370.59
2022-08-26T03:49:07.430Z,100375.25
2022-08-26T03:51:35.647Z,100374.03
2022-08-26T03:54:08.324Z,100361.78
2022-08-26T03:56:38.644Z,100370.47
2022-08-26T03:59:07.822Z,100371.13
2022-08-26T04:01:36.092Z,100368.16
2022-08-26T04:04:04.183Z,100363.53
2022-08-26T04:06:39.428Z,100370.53
2022-08-26T04:09:10.116Z,100366.50
2022-08-26T04:11:39.688Z,100372.84
2022-08-26T04:14:10.391Z,100370.31
2022-08-26T04:16:37.914Z,100371.38
2022-08-26T04:19:06.745Z,100370.31
2022-08-26T04:21:35.086Z,100375.41
2022-08-26T04:24:03.510Z,100374.13
2022-08-26T04:26:42.566Z,100375.63
2022-08-26T04:29:17.729Z,100361.09
2022-08-26T04:31:47.031Z,100365.56
2022-08-26T04:34:16.201Z,100369.91
2022-08-26T04:36:44.568Z,100372.56
2022-08-26T04:39:14.976Z,100364.41
2022-08-26T04:41:48.596Z,100361.09
2022-08-26T04:44:17.394Z,100359.63
2022-08-26T04:46:45.450Z,100358.84
2022-08-26T04:49:14.247Z,100360.63
2022-08-26T04:51:41.714Z,100349.78
2022-08-26T04:54:11.990Z,100345.81
2022-08-26T04:56:42.043Z,100345.94
2022-08-26T04:59:16.923Z,100346.41
2022-08-26T05:01:52.144Z,100352.75
2022-08-26T05:04:21.014Z,100351.13
2022-08-26T05:06:49.918Z,100357.44
2022-08-26T05:09:21.040Z,100345.13
2022-08-26T05:11:52.192Z,100346.09
2022-08-26T05:14:22.383Z,100351.63
2022-08-26T05:16:50.555Z,100356.06
2022-08-26T05:19:19.491Z,100353.88
2022-08-26T05:21:48.686Z,100352.56
2022-08-26T05:24:17.810Z,100354.47
2022-08-26T05:26:47.303Z,100361.81
2022-08-26T05:29:16.787Z,100348.69
2022-08-26T05:31:44.868Z,100353.94
2022-08-26T05:34:12.823Z,100353.38
2022-08-26T05:36:40.586Z,100362.06
2022-08-26T05:39:10.539Z,100354.63
2022-08-26T05:41:41.129Z,100368.63
2022-08-26T05:44:14.010Z,100347.09
2022-08-26T05:46:44.115Z,100348.63
2022-08-26T05:49:14.086Z,100348.03
2022-08-26T05:51:45.272Z,100361.91
2022-08-26T05:54:13.973Z,100370.59
2022-08-26T05:56:43.423Z,100385.56
2022-08-26T05:59:15.286Z,100363.06
2022-08-26T06:01:43.680Z,100376.88
2022-08-26T06:04:12.509Z,100374.34
2022-08-26T06:06:42.691Z,100384.44
2022-08-26T06:09:11.443Z,100375.75
2022-08-26T06:11:40.297Z,100367.25
2022-08-26T06:14:08.591Z,100367.47
2022-08-26T06:16:41.196Z,100365.31
2022-08-26T06:19:11.991Z,100384.78
2022-08-26T06:21:41.694Z,100362.50
2022-08-26T06:24:30.196Z,100373.06
2022-08-26T06:27:05.040Z,100371.59
2022-08-26T06:29:36.602Z,100375.16
2022-08-26T06:32:05.855Z,100385.25
2022-08-26T06:34:34.332Z,100385.75
2022-08-26T06:37:03.364Z,100367.19
2022-08-26T06:39:32.931Z,100368.34
2022-08-26T06:42:02.656Z,100372.56
2022-08-26T06:44:30.793Z,100378.38
2022-08-26T06:46:59.959Z,100370.50
2022-08-26T06:49:27.978Z,100361.19
2022-08-26T06:52:02.185Z,100362.47
2022-08-26T06:54:31.898Z,100361.41
2022-08-26T06:57:00.433Z,100374.13
2022-08-26T06:59:28.568Z,100373.69
2022-08-26T07:02:01.564Z,100371.50
2022-08-26T07:04:30.686Z,100356.75
2022-08-26T07:07:00.403Z,100365.56
2022-08-26T07:09:30.457Z,100359.28
2022-08-26T07:11:58.261Z,100363.41
2022-08-26T07:14:27.678Z,100367.88
2022-08-26T07:16:56.110Z,100364.03
2022-08-26T07:19:30.624Z,100361.34
2022-08-26T07:22:03.283Z,100369.75
2022-08-26T07:24:36.923Z,100360.53
2022-08-26T07:27:07.187Z,100355.88
2022-08-26T07:29:37.045Z,100374.44
2022-08-26T07:32:05.380Z,100352.59
2022-08-26T07:34:33.447Z,100348.19
2022-08-26T07:37:01.100Z,100343.09
2022-08-26T07:39:31.290Z,100356.25
2022-08-26T07:42:01.586Z,100356.66
2022-08-26T07:44:38.561Z,100362.16
2022-08-26T07:47:19.365Z,100356.28
2022-08-26T07:49:56.112Z,100374.50
2022-08-26T07:52:27.041Z,100368.97
2022-08-26T07:54:58.697Z,100365.09
2022-08-26T07:57:30.643Z,100366.81
2022-08-26T07:59:58.541Z,100357.09
2022-08-26T08:02:29.607Z,100362.09
2022-08-26T08:04:58.156Z,100353.66
2022-08-26T08:07:44.232Z,100354.03
2022-08-26T08:10:19.208Z,100355.25
2022-08-26T08:12:50.337Z,100348.63
2022-08-26T08:15:20.673Z,100351.56
2022-08-26T08:17:51.566Z,100363.84
2022-08-26T08:20:19.685Z,100358.84
2022-08-26T08:22:47.727Z,100344.16
2022-08-26T08:25:15.279Z,100361.84
2022-08-26T08:27:48.248Z,100354.25
2022-08-26T08:30:20.796Z,100358.97
2022-08-26T08:32:51.108Z,100360.16
2022-08-26T08:35:22.439Z,100356.78
2022-08-26T08:37:54.966Z,100349.69
2022-08-26T08:40:26.126Z,100350.69
2022-08-26T08:43:05.248Z,100349.69
2022-08-26T08:45:36.590Z,100353.44
2022-08-26T08:48:09.680Z,100362.69
2022-08-26T08:50:46.681Z,100348.63
2022-08-26T08:53:44.864Z,100357.69
2022-08-26T08:56:25.076Z,100354.31
2022-08-26T08:58:59.594Z,100355.75
2022-08-26T09:01:42.395Z,100351.28
2022-08-26T09:04:17.210Z,100351.63
2022-08-26T09:06:49.020Z,100362.84
2022-08-26T09:09:23.437Z,100339.56
2022-08-26T09:11:51.136Z,100347.53
2022-08-26T09:14:18.835Z,100348.13
2022-08-26T09:17:05.206Z,100340.44
2022-08-26T09:19:43.552Z,100342.59
2022-08-26T09:22:36.701Z,100371.25
2022-08-26T09:25:15.700Z,100338.97
2022-08-26T09:27:50.473Z,100348.72
2022-08-26T09:30:35.432Z,100344.34
2022-08-26T09:33:10.863Z,100337.47
2022-08-26T09:35:41.960Z,100334.88
2022-08-26T09:38:33.785Z,100333.91
2022-08-26T09:41:07.282Z,100331.84
2022-08-26T09:43:36.383Z,100348.19
2022-08-26T09:46:33.292Z,100349.28
2022-08-26T09:49:42.685Z,100341.47
2022-08-26T09:52:23.771Z,100345.44
2022-08-26T09:55:12.483Z,100350.63
2022-08-26T10:00:57.559Z,100345.47
2022-08-26T10:03:35.455Z,100345.81
2022-08-26T10:06:08.338Z,100337.41
2022-08-26T10:08:44.083Z,100346.72
2022-08-26T10:11:20.112Z,100342.38
2022-08-26T10:13:59.931Z,100340.47
2022-08-26T10:16:35.611Z,100340.09
2022-08-26T10:19:13.207Z,100339.97
2022-08-26T10:22:00.842Z,100327.56
2022-08-26T10:24:44.816Z,100328.03
2022-08-26T10:27:26.763Z,100318.53
2022-08-26T10:30:00.720Z,100323.72
2022-08-26T10:35:27.182Z,100329.97
2022-08-26T10:38:27.329Z,100337.63
2022-08-26T10:41:16.788Z,100330.03
2022-08-26T10:44:00.176Z,100335.06
2022-08-26T10:46:39.816Z,100341.09
2022-08-26T10:49:15.190Z,100335.00
2022-08-26T10:51:54.681Z,100332.75
2022-08-26T10:54:42.228Z,100340.03
2022-08-26T10:57:21.429Z,100335.75
2022-08-26T11:00:29.574Z,100329.69
2022-08-26T11:03:31.767Z,100336.97
2022-08-26T11:06:20.018Z,100333.44
2022-08-26T11:08:47.724Z,100335.91
2022-08-26T11:11:39.709Z,100327.31
2022-08-26T11:14:28.541Z,100325.19
2022-08-26T11:16:58.977Z,100318.56
2022-08-26T11:19:57.090Z,100329.22
2022-08-26T11:22:34.965Z,100326.59
2022-08-26T11:25:05.227Z,100318.72
2022-08-26T11:27:37.718Z,100315.88
2022-08-26T11:30:18.658Z,100318.94
2022-08-26T11:32:55.675Z,100319.63
2022-08-26T11:35:24.303Z,100314.63
2022-08-26T11:38:19.844Z,100333.53
2022-08-26T11:41:03.959Z,100310.50
2022-08-26T11:43:34.029Z,100319.00
2022-08-26T11:46:09.073Z,100315.53
2022-08-26T11:48:39.554Z,100324.44
2022-08-26T11:51:08.747Z,100315.06
2022-08-26T11:53:41.318Z,100320.13
2022-08-26T11:56:13.506Z,100329.34
2022-08-26T11:58:45.190Z,100341.34
2022-08-26T12:01:31.450Z,100330.50
2022-08-26T12:04:00.110Z,100328.91
2022-08-26T12:06:31.476Z,100319.16
2022-08-26T12:09:08.100Z,100331.28
2022-08-26T12:11:37.457Z,100322.28
2022-08-26T12:14:21.346Z,100326.03
2022-08-26T12:16:48.884Z,100321.00
2022-08-26T12:19:32.651Z,100308.06
2022-08-26T12:22:25.660Z,100321.38
2022-08-26T12:24:58.864Z,100304.44
2022-08-26T12:27:35.976Z,100301.69
2022-08-26T12:30:20.147Z,100316.97
2022-08-26T12:32:57.336Z,100293.19
2022-08-26T12:35:29.427Z,100311.56
2022-08-26T12:37:57.705Z,100299.31
2022-08-26T12:40:30.853Z,100298.81
2022-08-26T12:43:00.896Z,100288.97
2022-08-26T12:45:34.811Z,100297.53
2022-08-26T12:48:31.689Z,100310.03
2022-08-26T12:51:00.302Z,100292.44
2022-08-26T12:53:32.738Z,100304.22
2022-08-26T12:56:04.654Z,100296.41
2022-08-26T12:58:35.887Z,100279.56
2022-08-26T13:01:09.369Z,100297.00
2022-08-26T13:03:44.618Z,100294.00
2022-08-26T13:06:23.598Z,100290.94
2022-08-26T13:08:55.325Z,100290.25
2022-08-26T13:11:26.164Z,100273.97
2022-08-26T13:13:59.035Z,100282.72
2022-08-26T13:16:27.307Z,100280.22
2022-08-26T13:18:59.667Z,100281.88
2022-08-26T13:21:37.301Z,100277.81
2022-08-26T13:24:13.057Z,100281.69
2022-08-26T13:26:43.581Z,100280.75
2022-08-26T13:29:12.588Z,100277.16
2022-08-26T13:31:44.161Z,100283.78
2022-08-26T13:34:19.350Z,100278.72
2022-08-26T13:36:48.914Z,100278.16
2022-08-26T13:39:17.561Z,100278.63
2022-08-26T13:41:45.164Z,100264.78
2022-08-26T13:44:20.243Z,100264.66
2022-08-26T13:46:47.928Z,100258.88
2022-08-26T13:49:15.936Z,100257.78
2022-08-26T13:51:43.652Z,100256.81
2022-08-26T13:54:11.346Z,100260.53
2022-08-26T13:56:41.599Z,100255.81
2022-08-26T13:59:09.026Z,100259.06
2022-08-26T14:01:37.326Z,100246.31
2022-08-26T14:04:04.749Z,100250.78
2022-08-26T14:06:34.644Z,100258.25
2022-08-26T14:09:02.263Z,100243.56
2022-08-26T14:11:41.151Z,100251.59
2022-08-26T14:14:19.841Z,100244.66
2022-08-26T14:16:51.282Z,100245.13
2022-08-26T14:19:29.685Z,100250.22
2022-08-26T14:21:57.242Z,100243.47
2022-08-26T14:24:26.283Z,100243.38
2022-08-26T14:26:53.955Z,100248.28
2022-08-26T14:29:22.440Z,100244.69
2022-08-26T14:31:50.095Z,100237.22
2022-08-26T14:34:17.775Z,100246.22
2022-08-26T14:36:46.666Z,100231.19
2022-08-26T14:39:14.947Z,100235.78
2022-08-26T14:41:54.426Z,100239.84
2022-08-26T14:44:26.557Z,100235.06
2022-08-26T14:46:54.735Z,100235.56
2022-08-26T14:49:23.887Z,100238.19
2022-08-26T14:51:51.294Z,100226.63
2022-08-26T14:54:19.475Z,100211.03
2022-08-26T14:56:53.974Z,100239.75
2022-08-26T14:59:25.568Z,100228.44
2022-08-26T15:01:54.528Z,100225.41
2022-08-26T15:04:23.193Z,100230.34
2022-08-26T15:06:53.866Z,100230.44
2022-08-26T15:09:22.534Z,100226.19
2022-08-26T15:11:51.539Z,100238.59
2022-08-26T15:14:20.138Z,100232.22
2022-08-26T15:16:50.657Z,100231.00
2022-08-26T15:19:19.141Z,100225.50
2022-08-26T15:21:47.612Z,100230.41
2022-08-26T15:24:18.887Z,100226.19
2022-08-26T15:26:49.557Z,100234.25
2022-08-26T15:29:17.553Z,100237.25
2022-08-26T15:31:45.142Z,100241.22
2022-08-26T15:34:16.751Z,100245.88
2022-08-26T15:36:46.456Z,100225.13
2022-08-26T15:39:16.053Z,100217.53
2022-08-26T15:41:44.857Z,100214.53
2022-08-26T15:44:14.085Z,100223.91
2022-08-26T15:46:45.680Z,100218.00
2022-08-26T15:49:18.231Z,100230.97
2022-08-26T15:51:48.214Z,100220.63
2022-08-26T15:54:19.612Z,100223.28
2022-08-26T15:56:50.630Z,100223.34
2022-08-26T15:59:19.468Z,100219.81
2022-08-26T16:01:47.123Z,100219.31
2022-08-26T16:04:15.167Z,100220.25
2022-08-26T16:06:46.694Z,100223.34
2022-08-26T16:09:14.105Z,100205.16
2022-08-26T16:11:41.810Z,100211.00
2022-08-26T16:14:09.555Z,100219.59
2022-08-26T16:16:44.381Z,100211.88
2022-08-26T16:19:14.309Z,100214.06
2022-08-26T16:21:42.139Z,100207.41
2022-08-26T16:24:09.971Z,100208.31
2022-08-26T16:26:38.923Z,100207.53
2022-08-26T16:29:12.426Z,100207.41
2022-08-26T16:31:40.531Z,100207.25
2022-08-26T16:34:09.068Z,100203.72
2022-08-26T16:36:38.660Z,100215.19
2022-08-26T16:39:07.945Z,100224.78
2022-08-26T16:41:36.157Z,100216.94
2022-08-26T16:44:07.919Z,100219.06
2022-08-26T16:46:36.257Z,100224.38
2022-08-26T16:49:04.813Z,100226.28
2022-08-26T16:51:37.979Z,100230.09
2022-08-26T16:54:09.562Z,100233.94
2022-08-26T16:56:37.754Z,100226.75
2022-08-26T16:59:07.218Z,100234.56
2022-08-26T17:01:35.562Z,100226.91
2022-08-26T17:04:03.362Z,100233.03
2022-08-26T17:06:31.721Z,100238.75
2022-08-26T17:08:59.337Z,100241.53
2022-08-26T17:11:26.842Z,100240.53
2022-08-26T17:13:54.387Z,100247.94
2022-08-26T17:16:26.431Z,100244.81
2022-08-26T17:18:58.684Z,100254.56
2022-08-26T17:21:28.074Z,100258.00
2022-08-26T17:23:57.891Z,100262.50
2022-08-26T17:26:26.688Z,100264.44
2022-08-26T17:28:54.529Z,100272.56
2022-08-26T17:31:23.545Z,100272.38
2022-08-26T17:33:53.756Z,100259.47
2022-08-26T17:36:27.885Z,100258.69
2022-08-26T17:38:57.040Z,100247.72
2022-08-26T17:41:25.187Z,100254.50
2022-08-26T17:43:52.592Z,100256.84
2022-08-26T17:46:23.189Z,100258.16
2022-08-26T17:48:50.933Z,100256.69
2022-08-26T17:51:20.361Z,100256.91
2022-08-26T17:53:50.714Z,100258.00
2022-08-26T17:56:24.063Z,100255.00
2022-08-26T17:58:54.277Z,100244.81
2022-08-26T18:01:26.426Z,100236.13
2022-08-26T18:03:59.685Z,100242.69
2022-08-26T18:06:30.743Z,100245.91
2022-08-26T18:08:58.739Z,100251.41
2022-08-26T18:11:27.198Z,100246.97
2022-08-26T18:13:54.883Z,100235.72
2022-08-26T18:16:22.352Z,100238.06
2022-08-26T18:18:53.507Z,100222.84
2022-08-26T18:21:24.066Z,100225.59
2022-08-26T18:23:52.360Z,100227.94
2022-08-26T18:26:27.589Z,100229.88
2022-08-26T18:28:55.741Z,100233.69
2022-08-26T18:31:23.210Z,100234.34
2022-08-26T18:33:50.700Z,100239.00
2022-08-26T18:36:21.814Z,100247.66
2022-08-26T18:38:50.847Z,100243.41
2022-08-26T18:41:21.049Z,100248.28
2022-08-26T18:43:50.614Z,100259.06
2022-08-26T18:46:19.223Z,100249.56
2022-08-26T18:48:51.065Z,100239.25
2022-08-26T18:51:21.502Z,100221.69
2022-08-26T18:53:49.934Z,100233.09
2022-08-26T18:56:18.751Z,100243.47
2022-08-26T18:58:50.110Z,100245.81
2022-08-26T19:01:18.411Z,100243.28
2022-08-26T19:03:49.234Z,100239.91
2022-08-26T19:06:19.470Z,100253.47
2022-08-26T19:08:49.972Z,100240.44
2022-08-26T19:11:32.122Z,100259.94
2022-08-26T19:14:02.313Z,100244.72
2022-08-26T19:16:30.886Z,100221.06
2022-08-26T19:19:00.656Z,100219.84
2022-08-26T19:21:31.858Z,100220.06
2022-08-26T19:24:02.635Z,100231.59
2022-08-26T19:26:36.402Z,100224.38
2022-08-26T19:29:04.137Z,100232.41
2022-08-26T19:31:31.718Z,100227.13
2022-08-26T19:33:59.645Z,100212.81
2022-08-26T19:36:28.477Z,100221.28
2022-08-26T19:38:56.849Z,100225.13
2022-08-26T19:41:36.945Z,100224.50
2022-08-26T19:44:11.770Z,100211.59
2022-08-26T19:46:40.041Z,100219.44
2022-08-26T19:49:10.581Z,100215.41
2022-08-26T19:51:40.695Z,100215.41
2022-08-26T19:54:09.734Z,100206.31
2022-08-26T19:56:41.425Z,100201.66
2022-08-26T19:59:09.060Z,100200.00
2022-08-26T20:01:37.082Z,100198.94
2022-08-26T20:04:04.965Z,100201.66
2022-08-26T20:06:33.006Z,100202.09
2022-08-26T20:09:03.739Z,100204.44
2022-08-26T20:11:32.159Z,100195.53
2022-08-26T20:13:59.883Z,100196.59
2022-08-26T20:16:27.685Z,100197.88
2022-08-26T20:19:14.041Z,100189.59
2022-08-26T20:21:42.585Z,100192.31
2022-08-26T20:24:14.021Z,100187.44
2022-08-26T20:26:43.328Z,100193.13
2022-08-26T20:29:12.976Z,100177.72
2022-08-26T20:31:41.107Z,100185.13
2022-08-26T20:34:08.744Z,100186.59
2022-08-26T20:36:38.620Z,100185.09
2022-08-26T20:39:06.454Z,100188.06
2022-08-26T20:41:33.971Z,100177.28
2022-08-26T20:44:02.176Z,100181.47
2022-08-26T20:46:29.803Z,100180.63
2022-08-26T20:48:58.230Z,100182.09
2022-08-26T20:51:27.303Z,100183.34
2022-08-26T20:53:54.924Z,100180.78
2022-08-26T20:56:25.944Z,100183.31
2022-08-26T20:58:55.934Z,100181.63
2022-08-26T21:01:25.890Z,100173.56
2022-08-26T21:03:54.266Z,100173.16
2022-08-26T21:06:22.045Z,100185.81
2022-08-26T21:08:50.826Z,100184.53
2022-08-26T21:11:19.215Z,100189.78
2022-08-26T21:16:36.769Z,100176.88
2022-08-26T21:19:05.899Z,100186.16
2022-08-26T21:21:33.843Z,100178.13
2022-08-26T21:24:01.515Z,100185.69
2022-08-26T21:26:29.374Z,100183.78
2022-08-26T21:28:57.150Z,100178.28
2022-08-26T21:31:25.532Z,100188.00
2022-08-26T21:33:53.466Z,100184.25
2022-08-26T21:36:21.194Z,100174.94
2022-08-26T21:38:48.692Z,100176.22
2022-08-26T21:41:19.520Z,100179.00
2022-08-26T21:43:48.272Z,100188.94
2022-08-26T21:46:22.038Z,100176.09
2022-08-26T21:48:56.379Z,100181.78
2022-08-26T21:51:26.135Z,100171.28
2022-08-26T21:53:55.707Z,100165.78
2022-08-26T21:56:26.343Z,100167.69
2022-08-26T21:58:55.108Z,100161.53
2022-08-26T22:01:23.715Z,100157.34
2022-08-26T22:03:52.750Z,100158.81
2022-08-26T22:06:22.707Z,100149.13
2022-08-26T22:08:52.135Z,100154.81
2022-08-26T22:11:19.904Z,100161.81
2022-08-26T22:13:48.712Z,100156.09
2022-08-26T22:16:16.381Z,100146.19
2022-08-26T22:18:45.970Z,100152.53
2022-08-26T22:21:20.773Z,100149.78
2022-08-26T22:23:48.226Z,100148.94
2022-08-26T22:26:25.502Z,100143.66
2022-08-26T22:28:58.646Z,100135.28
2022-08-26T22:31:37.647Z,100135.72
2022-08-26T22:34:08.972Z,100137.81
2022-08-26T22:36:43.104Z,100148.78
2022-08-26T22:39:17.244Z,100139.53
2022-08-26T22:41:45.386Z,100139.09
2022-08-26T22:44:12.850Z,100141.41
2022-08-26T22:46:42.294Z,100136.34
2022-08-26T22:49:11.404Z,100129.44
2022-08-26T22:51:39.106Z,100144.44
2022-08-26T22:54:06.587Z,100122.72
2022-08-26T22:56:34.545Z,100128.38
2022-08-26T22:59:02.250Z,100125.88
2022-08-26T23:01:30.000Z,100127.97
2022-08-26T23:06:25.111Z,100137.25
2022-08-26T23:08:53.245Z,100136.81
2022-08-26T23:11:25.257Z,100115.94
2022-08-26T23:13:52.708Z,100122.47
2022-08-26T23:16:20.255Z,100125.03
2022-08-26T23:18:47.755Z,100126.09
2022-08-26T23:21:15.289Z,100128.59
2022-08-26T23:23:42.763Z,100124.81
2022-08-26T23:26:16.723Z,100113.19
2022-08-26T23:28:45.033Z,100122.47
2022-08-26T23:31:12.404Z,100132.81
2022-08-26T23:33:59.064Z,100124.38
2022-08-26T23:36:26.698Z,100108.56
2022-08-26T23:38:54.408Z,100123.13
2022-08-26T23:41:22.905Z,100121.63
2022-08-26T23:43:51.804Z,100121.44
2022-08-26T23:46:19.929Z,100114.84
2022-08-26T23:48:47.323Z,100110.00
2022-08-26T23:51:33.356Z,100119.91
2022-08-26T23:54:00.940Z,100126.03
2022-08-26T23:56:29.243Z,100117.84
2022-08-26T23:58:56.878Z,100116.56
